Time;durP1;ratioP1;P1;durP2;ratioP2;P2;SDS_P1;SDS_P2;PMS_P1;PMS_P2;Temp;Humidity;BMP_temperature;BMP_pressure;BME280_temperature;BME280_humidity;BME280_pressure;Samples;Min_cycle;Max_cycle;Signal;HPM_P1;HPM_P2
2023/05/08 00:02:05;;;;;;;284.35;72.72;;;;;;;;;;4985600;28;20450;-57
2023/05/08 00:04:30;;;;;;;374.13;76.43;;;;;;;;;;4982442;28;20040;-57
2023/05/08 00:06:56;;;;;;;347.67;75.57;;;;;;;;;;4983199;28;20262;-56
2023/05/08 00:09:21;;;;;;;306.17;75.60;;;;;;;;;;4984731;28;20253;-57
2023/05/08 00:11:46;;;;;;;334.08;75.82;;;;;;;;;;4984730;28;20041;-57
2023/05/08 00:14:12;;;;;;;303.53;73.70;;;;;;;;;;4985805;28;20026;-57
2023/05/08 00:16:37;;;;;;;281.93;72.83;;;;;;;;;;4986190;28;20266;-55
2023/05/08 00:19:02;;;;;;;312.20;75.53;;;;;;;;;;4985207;28;20271;-57
2023/05/08 00:21:28;;;;;;;334.52;77.40;;;;;;;;;;4985675;28;20315;-55
2023/05/08 00:23:53;;;;;;;388.05;78.72;;;;;;;;;;4984200;28;20382;-57
2023/05/08 00:26:19;;;;;;;337.52;79.40;;;;;;;;;;4982063;28;20042;-57
2023/05/08 00:28:44;;;;;;;290.73;77.95;;;;;;;;;;4985334;28;20732;-55
2023/05/08 00:31:10;;;;;;;320.38;79.03;;;;;;;;;;4984840;28;20042;-57
2023/05/08 00:33:36;;;;;;;329.73;80.32;;;;;;;;;;4984544;28;20029;-55
2023/05/08 00:36:01;;;;;;;326.35;81.05;;;;;;;;;;4985749;28;20914;-56
2023/05/08 00:38:29;;;;;;;364.42;82.32;;;;;;;;;;4986383;28;20014;-56
2023/05/08 00:40:54;;;;;;;307.00;81.03;;;;;;;;;;4987798;28;20033;-57
2023/05/08 00:43:24;;;;;;;318.52;80.18;;;;;;;;;;4985140;28;20611;-57
2023/05/08 00:45:49;;;;;;;353.60;83.25;;;;;;;;;;4983493;28;20135;-55
2023/05/08 00:48:15;;;;;;;313.90;80.97;;;;;;;;;;4982720;28;20160;-57
2023/05/08 00:50:40;;;;;;;301.67;82.10;;;;;;;;;;4983986;28;20068;-56
2023/05/08 00:53:05;;;;;;;298.95;75.10;;;;;;;;;;4983900;28;20309;-56
2023/05/08 00:55:31;;;;;;;341.13;80.70;;;;;;;;;;4984346;28;20465;-55
2023/05/08 00:57:57;;;;;;;379.98;82.82;;;;;;;;;;4983233;28;20057;-56
2023/05/08 01:00:22;;;;;;;335.40;82.03;;;;;;;;;;4984090;28;20155;-57
2023/05/08 01:02:47;;;;;;;270.48;81.95;;;;;;;;;;4985433;28;20114;-57
2023/05/08 01:05:13;;;;;;;332.70;83.40;;;;;;;;;;4983817;28;20022;-56
2023/05/08 01:07:39;;;;;;;336.98;86.97;;;;;;;;;;4984923;28;20150;-57
2023/05/08 01:10:05;;;;;;;351.47;88.50;;;;;;;;;;4984428;28;20677;-57
2023/05/08 01:12:49;;;;;;;322.60;86.40;;;;;;;;;;4984608;28;20935;-54
2023/05/08 01:15:17;;;;;;;359.08;90.32;;;;;;;;;;4982378;28;20128;-55
2023/05/08 01:17:42;;;;;;;345.63;88.93;;;;;;;;;;4985345;28;20122;-57
2023/05/08 01:20:07;;;;;;;321.83;89.07;;;;;;;;;;4988772;28;21258;-56
2023/05/08 01:22:35;;;;;;;359.80;90.97;;;;;;;;;;4988372;28;20022;-56
2023/05/08 01:25:19;;;;;;;350.25;91.30;;;;;;;;;;4986711;28;20106;-57
2023/05/08 01:27:53;;;;;;;335.83;89.50;;;;;;;;;;4987762;28;20046;-55
2023/05/08 01:30:19;;;;;;;337.98;90.75;;;;;;;;;;4986718;28;20022;-56
2023/05/08 01:33:07;;;;;;;351.63;94.28;;;;;;;;;;4989106;28;20037;-56
2023/05/08 01:35:44;;;;;;;336.70;94.05;;;;;;;;;;4995288;28;20040;-55
2023/05/08 01:38:13;;;;;;;350.63;94.47;;;;;;;;;;4987966;28;20125;-57
2023/05/08 01:40:44;;;;;;;365.20;96.60;;;;;;;;;;4987776;28;20117;-56
2023/05/08 01:43:13;;;;;;;322.17;95.35;;;;;;;;;;4987302;28;20026;-56
2023/05/08 01:45:39;;;;;;;299.77;88.07;;;;;;;;;;4986323;28;20122;-57
2023/05/08 01:48:07;;;;;;;333.30;89.72;;;;;;;;;;4987385;28;20022;-54
2023/05/08 01:50:34;;;;;;;353.60;91.03;;;;;;;;;;4986756;28;20037;-57
2023/05/08 01:53:25;;;;;;;368.98;92.40;;;;;;;;;;4988918;28;20049;-57
2023/05/08 01:55:53;;;;;;;347.92;91.03;;;;;;;;;;4986912;28;20059;-56
2023/05/08 01:58:19;;;;;;;323.83;89.45;;;;;;;;;;4986862;28;20022;-56
2023/05/08 02:00:44;;;;;;;314.75;89.75;;;;;;;;;;4987306;28;20348;-57
2023/05/08 02:03:10;;;;;;;371.02;93.55;;;;;;;;;;4986952;28;20034;-57
2023/05/08 02:05:36;;;;;;;323.25;90.72;;;;;;;;;;4987449;28;20027;-55
2023/05/08 02:08:03;;;;;;;324.40;89.30;;;;;;;;;;4987931;28;20032;-55
2023/05/08 02:10:28;;;;;;;374.85;87.00;;;;;;;;;;4987727;28;20497;-55
2023/05/08 02:12:54;;;;;;;331.27;90.60;;;;;;;;;;4987563;28;20037;-56
2023/05/08 02:15:20;;;;;;;341.92;90.50;;;;;;;;;;4986432;28;20049;-56
2023/05/08 02:17:47;;;;;;;321.50;91.75;;;;;;;;;;4988672;28;20023;-55
2023/05/08 02:20:13;;;;;;;342.00;94.05;;;;;;;;;;4988378;28;20510;-58
2023/05/08 02:22:40;;;;;;;356.33;95.18;;;;;;;;;;4987361;28;20029;-58
2023/05/08 02:25:06;;;;;;;332.83;92.85;;;;;;;;;;4987018;28;20022;-56
2023/05/08 02:27:31;;;;;;;392.40;96.30;;;;;;;;;;4985683;28;20044;-58
2023/05/08 02:29:57;;;;;;;364.15;97.78;;;;;;;;;;4989096;28;20384;-58
2023/05/08 02:32:24;;;;;;;350.75;97.07;;;;;;;;;;4984494;28;20031;-58
2023/05/08 02:34:51;;;;;;;353.23;79.60;;;;;;;;;;4986100;28;20036;-59
2023/05/08 02:37:17;;;;;;;313.52;88.35;;;;;;;;;;4986713;28;20057;-58
2023/05/08 02:39:44;;;;;;;301.60;86.97;;;;;;;;;;4986688;28;20029;-58
2023/05/08 02:42:09;;;;;;;339.33;88.60;;;;;;;;;;4986307;28;20049;-57
2023/05/08 02:44:35;;;;;;;325.38;91.05;;;;;;;;;;4986457;28;20034;-57
2023/05/08 02:47:20;;;;;;;355.55;89.10;;;;;;;;;;4984887;28;20133;-55
2023/05/08 02:49:49;;;;;;;297.02;82.55;;;;;;;;;;4987760;28;20079;-56
2023/05/08 02:52:31;;;;;;;355.85;85.65;;;;;;;;;;4986608;28;20077;-55
2023/05/08 02:54:57;;;;;;;;;;;;;;;;;;4985693;28;20678;-57
2023/05/08 02:57:42;;;;;;;389.45;93.72;;;;;;;;;;4985478;28;20743;-55
2023/05/08 03:00:17;;;;;;;334.30;93.40;;;;;;;;;;4985175;28;20119;-55
2023/05/08 03:02:44;;;;;;;314.92;91.47;;;;;;;;;;4987354;28;20018;-57
2023/05/08 03:05:15;;;;;;;335.45;93.45;;;;;;;;;;4984821;28;20018;-56
2023/05/08 03:07:41;;;;;;;376.35;96.00;;;;;;;;;;4985763;28;20125;-58
2023/05/08 03:10:14;;;;;;;325.83;89.03;;;;;;;;;;4986301;28;20026;-57
2023/05/08 03:12:41;;;;;;;384.55;91.65;;;;;;;;;;4985371;28;20014;-56
2023/05/08 03:15:27;;;;;;;345.25;94.85;;;;;;;;;;4985629;28;20092;-55
2023/05/08 03:17:54;;;;;;;360.75;98.30;;;;;;;;;;4985324;28;20652;-55
2023/05/08 03:20:20;;;;;;;333.70;96.38;;;;;;;;;;4984654;28;20775;-55
2023/05/08 03:22:47;;;;;;;360.73;96.80;;;;;;;;;;4987906;28;20022;-55
2023/05/08 03:25:13;;;;;;;332.08;97.20;;;;;;;;;;4985071;28;20645;-56
2023/05/08 03:27:39;;;;;;;394.55;100.75;;;;;;;;;;4987067;28;20014;-57
2023/05/08 03:30:05;;;;;;;375.58;99.90;;;;;;;;;;4987253;28;20099;-56
2023/05/08 03:32:31;;;;;;;312.65;99.55;;;;;;;;;;4985093;28;20070;-58
2023/05/08 03:34:57;;;;;;;358.42;99.80;;;;;;;;;;4977223;28;20017;-59
2023/05/08 03:37:23;;;;;;;370.63;99.72;;;;;;;;;;4984932;28;20381;-57
2023/05/08 03:39:49;;;;;;;336.20;99.68;;;;;;;;;;4986505;28;20541;-57
2023/05/08 03:42:20;;;;;;;386.38;101.07;;;;;;;;;;4985513;28;20026;-56
2023/05/08 03:44:55;;;;;;;356.02;99.93;;;;;;;;;;4984803;28;20153;-58
2023/05/08 03:47:20;;;;;;;376.65;105.05;;;;;;;;;;4982901;28;20045;-57
2023/05/08 03:49:46;;;;;;;358.20;103.10;;;;;;;;;;4986149;28;20014;-58
2023/05/08 03:52:12;;;;;;;353.92;101.10;;;;;;;;;;4985180;28;20088;-58
2023/05/08 03:54:37;;;;;;;356.85;103.57;;;;;;;;;;4983520;28;20975;-58
2023/05/08 03:57:02;;;;;;;360.52;102.13;;;;;;;;;;4985331;28;20048;-58
2023/05/08 03:59:28;;;;;;;381.58;100.40;;;;;;;;;;4984399;28;20113;-57
2023/05/08 04:02:08;;;;;;;342.73;99.30;;;;;;;;;;4985201;28;20038;-57
2023/05/08 04:04:38;;;;;;;365.02;99.63;;;;;;;;;;4984915;28;20094;-58
2023/05/08 04:07:16;;;;;;;337.25;101.93;;;;;;;;;;4986488;28;20079;-56
2023/05/08 04:10:00;;;;;;;399.77;104.03;;;;;;;;;;4983915;28;20022;-58
2023/05/08 04:12:29;;;;;;;354.13;103.20;;;;;;;;;;4986028;28;20725;-58
2023/05/08 04:15:03;;;;;;;389.38;103.93;;;;;;;;;;4984197;28;20026;-57
2023/05/08 04:17:31;;;;;;;399.30;105.93;;;;;;;;;;4985652;28;20528;-58
2023/05/08 04:19:59;;;;;;;368.70;104.88;;;;;;;;;;4985808;28;20101;-56
2023/05/08 04:22:24;;;;;;;362.60;106.68;;;;;;;;;;4985662;28;20089;-56
2023/05/08 04:24:51;;;;;;;336.90;105.70;;;;;;;;;;4983337;28;20137;-58
2023/05/08 04:27:16;;;;;;;347.48;106.85;;;;;;;;;;4983014;28;20126;-59
2023/05/08 04:29:41;;;;;;;342.85;107.32;;;;;;;;;;4985685;28;20036;-58
2023/05/08 04:32:07;;;;;;;410.27;106.38;;;;;;;;;;4968538;28;20026;-58
2023/05/08 04:34:33;;;;;;;364.73;98.93;;;;;;;;;;4984130;28;20056;-59
2023/05/08 04:36:58;;;;;;;334.05;99.38;;;;;;;;;;4968277;28;20045;-58
2023/05/08 04:39:23;;;;;;;400.38;102.65;;;;;;;;;;4983784;28;20045;-58
2023/05/08 04:41:51;;;;;;;314.38;100.63;;;;;;;;;;4985019;28;20046;-56
2023/05/08 04:44:16;;;;;;;358.08;104.00;;;;;;;;;;4985899;28;20828;-57
2023/05/08 04:46:41;;;;;;;368.53;103.77;;;;;;;;;;4983470;28;20037;-58
2023/05/08 04:49:06;;;;;;;356.60;103.60;;;;;;;;;;4984765;28;20599;-59
2023/05/08 04:51:32;;;;;;;334.95;85.60;;;;;;;;;;4985426;28;20642;-58
2023/05/08 04:53:57;;;;;;;324.73;89.53;;;;;;;;;;4982945;28;20054;-57
2023/05/08 04:56:22;;;;;;;315.63;91.50;;;;;;;;;;4987815;28;20120;-56
2023/05/08 04:58:48;;;;;;;350.90;83.20;;;;;;;;;;4988471;28;20845;-56
2023/05/08 05:01:13;;;;;;;289.98;76.20;;;;;;;;;;4987816;28;20261;-57
2023/05/08 05:03:38;;;;;;;341.73;77.90;;;;;;;;;;4988406;28;20072;-57
2023/05/08 05:06:04;;;;;;;320.65;81.70;;;;;;;;;;4990638;28;20314;-58
2023/05/08 05:08:29;;;;;;;311.38;83.47;;;;;;;;;;4988748;28;20087;-58
2023/05/08 05:10:54;;;;;;;316.98;84.68;;;;;;;;;;4988333;28;20031;-57
2023/05/08 05:13:19;;;;;;;317.02;86.50;;;;;;;;;;4991087;28;20033;-56
2023/05/08 05:15:45;;;;;;;338.63;73.57;;;;;;;;;;4986967;28;20421;-56
2023/05/08 05:18:10;;;;;;;381.35;76.95;;;;;;;;;;4987800;28;20131;-56
2023/05/08 05:20:36;;;;;;;300.58;66.15;;;;;;;;;;4986970;28;20036;-56
2023/05/08 05:23:01;;;;;;;266.98;63.80;;;;;;;;;;4987890;28;20485;-57
2023/05/08 05:25:27;;;;;;;340.58;71.00;;;;;;;;;;4985072;28;20041;-56
2023/05/08 05:27:52;;;;;;;258.10;66.53;;;;;;;;;;4987341;28;20026;-58
2023/05/08 05:30:17;;;;;;;283.50;66.43;;;;;;;;;;4989135;28;20275;-58
2023/05/08 05:32:42;;;;;;;329.33;69.45;;;;;;;;;;4988953;28;20257;-56
2023/05/08 05:35:08;;;;;;;297.50;75.05;;;;;;;;;;4986937;28;20018;-56
2023/05/08 05:37:33;;;;;;;392.13;79.30;;;;;;;;;;4988557;28;20542;-57
2023/05/08 05:39:58;;;;;;;296.15;76.95;;;;;;;;;;4986658;28;20171;-58
2023/05/08 05:42:24;;;;;;;325.13;72.27;;;;;;;;;;4987551;28;20481;-58
2023/05/08 05:44:49;;;;;;;353.02;74.45;;;;;;;;;;4985473;28;20302;-56
2023/05/08 05:47:14;;;;;;;305.80;75.03;;;;;;;;;;4988038;28;20030;-57
2023/05/08 05:49:41;;;;;;;304.60;75.23;;;;;;;;;;4986697;28;20257;-58
2023/05/08 05:52:07;;;;;;;354.92;78.95;;;;;;;;;;4987966;28;20372;-58
2023/05/08 05:54:32;;;;;;;317.55;77.85;;;;;;;;;;4987272;28;20038;-56
2023/05/08 05:56:57;;;;;;;350.10;80.60;;;;;;;;;;4975637;28;20439;-56
2023/05/08 05:59:23;;;;;;;316.50;80.40;;;;;;;;;;4973364;28;20045;-57
2023/05/08 06:01:48;;;;;;;298.02;75.38;;;;;;;;;;4985542;28;20496;-56
2023/05/08 06:04:13;;;;;;;319.50;69.70;;;;;;;;;;4983656;28;20033;-56
2023/05/08 06:06:38;;;;;;;275.67;61.83;;;;;;;;;;4984169;28;20262;-57
2023/05/08 06:09:05;;;;;;;329.53;71.27;;;;;;;;;;4986563;28;20261;-58
2023/05/08 06:11:31;;;;;;;311.45;67.47;;;;;;;;;;4986478;28;20063;-57
2023/05/08 06:13:56;;;;;;;326.50;83.17;;;;;;;;;;4987547;28;20939;-56
2023/05/08 06:16:23;;;;;;;302.67;66.25;;;;;;;;;;4986935;28;20274;-55
2023/05/08 06:18:48;;;;;;;313.02;69.47;;;;;;;;;;4985839;28;20026;-58
2023/05/08 06:21:13;;;;;;;285.13;67.23;;;;;;;;;;4986805;28;20052;-56
2023/05/08 06:23:38;;;;;;;365.27;71.07;;;;;;;;;;4986599;28;20281;-58
2023/05/08 06:26:03;;;;;;;291.20;69.67;;;;;;;;;;4986940;28;20271;-56
2023/05/08 06:28:29;;;;;;;277.30;67.17;;;;;;;;;;4987491;28;20029;-58
2023/05/08 06:30:54;;;;;;;274.33;68.87;;;;;;;;;;4986981;28;20254;-56
2023/05/08 06:33:19;;;;;;;265.03;69.33;;;;;;;;;;4988473;28;20688;-57
2023/05/08 06:35:45;;;;;;;295.50;68.90;;;;;;;;;;4986060;28;20265;-59
2023/05/08 06:38:10;;;;;;;290.63;68.07;;;;;;;;;;4986541;28;20022;-58
2023/05/08 06:40:39;;;;;;;267.20;59.97;;;;;;;;;;4976951;28;20041;-58
2023/05/08 06:43:05;;;;;;;296.50;63.20;;;;;;;;;;4986452;28;20287;-58
2023/05/08 06:45:30;;;;;;;241.82;64.47;;;;;;;;;;4986579;28;20030;-58
2023/05/08 06:47:55;;;;;;;283.40;67.37;;;;;;;;;;4986335;28;20018;-59
2023/05/08 06:50:21;;;;;;;275.43;69.10;;;;;;;;;;4989211;28;20976;-58
2023/05/08 06:52:46;;;;;;;260.67;71.20;;;;;;;;;;4985497;28;20608;-59
2023/05/08 06:55:11;;;;;;;314.60;72.97;;;;;;;;;;4985284;28;20087;-58
2023/05/08 06:57:36;;;;;;;338.97;76.33;;;;;;;;;;4986098;28;20947;-60
2023/05/08 07:00:02;;;;;;;332.53;76.47;;;;;;;;;;4986537;28;20483;-59
2023/05/08 07:02:27;;;;;;;343.35;76.85;;;;;;;;;;4986015;28;20968;-57
2023/05/08 07:04:52;;;;;;;274.57;75.37;;;;;;;;;;4974166;28;20026;-58
2023/05/08 07:07:18;;;;;;;362.75;79.10;;;;;;;;;;4985636;28;20265;-57
2023/05/08 07:09:43;;;;;;;353.40;78.35;;;;;;;;;;4985734;28;20041;-57
2023/05/08 07:12:08;;;;;;;316.13;77.55;;;;;;;;;;4987101;28;20504;-59
2023/05/08 07:14:34;;;;;;;329.85;78.88;;;;;;;;;;4986802;28;20022;-59
2023/05/08 07:17:05;;;;;;;262.08;76.55;;;;;;;;;;4984508;28;20536;-60
2023/05/08 07:19:31;;;;;;;292.33;72.72;;;;;;;;;;4987741;28;20038;-59
2023/05/08 07:21:56;;;;;;;309.33;72.82;;;;;;;;;;4984972;28;20034;-59
2023/05/08 07:24:21;;;;;;;198.47;57.73;;;;;;;;;;4971989;28;20759;-60
2023/05/08 07:26:46;;;;;;;268.50;52.22;;;;;;;;;;4987884;28;20507;-59
2023/05/08 07:29:12;;;;;;;256.27;50.73;;;;;;;;;;4986823;28;20025;-60
2023/05/08 07:31:40;;;;;;;220.80;49.05;;;;;;;;;;4985963;28;20030;-60
2023/05/08 07:34:06;;;;;;;311.48;59.25;;;;;;;;;;4983830;28;20526;-59
2023/05/08 07:36:31;;;;;;;265.08;61.80;;;;;;;;;;4985588;28;20033;-58
2023/05/08 07:38:56;;;;;;;226.52;49.80;;;;;;;;;;4985399;28;20021;-59
2023/05/08 07:41:21;;;;;;;261.67;55.80;;;;;;;;;;4987671;28;20451;-58
2023/05/08 07:43:47;;;;;;;254.23;48.77;;;;;;;;;;4985531;28;20379;-58
2023/05/08 07:46:15;;;;;;;266.57;48.47;;;;;;;;;;4985633;28;20368;-59
2023/05/08 07:48:41;;;;;;;209.95;43.58;;;;;;;;;;4986430;28;20258;-57
2023/05/08 07:51:06;;;;;;;172.23;32.55;;;;;;;;;;4986340;28;20041;-61
2023/05/08 07:53:31;;;;;;;260.08;35.08;;;;;;;;;;4986194;28;20038;-57
2023/05/08 07:55:56;;;;;;;236.97;48.80;;;;;;;;;;4988219;28;20047;-56
2023/05/08 07:58:22;;;;;;;234.80;51.17;;;;;;;;;;4986389;28;20478;-57
2023/05/08 08:00:47;;;;;;;243.80;55.57;;;;;;;;;;4983080;28;20266;-57
2023/05/08 08:03:12;;;;;;;246.70;56.93;;;;;;;;;;4985297;28;20276;-57
2023/05/08 08:05:38;;;;;;;266.90;60.40;;;;;;;;;;4984504;28;20030;-57
2023/05/08 08:08:04;;;;;;;289.55;63.25;;;;;;;;;;4985734;28;20268;-58
2023/05/08 08:10:30;;;;;;;240.05;61.53;;;;;;;;;;4985707;28;20035;-58
2023/05/08 08:12:55;;;;;;;290.88;63.55;;;;;;;;;;4985681;28;20022;-59
2023/05/08 08:15:20;;;;;;;238.15;60.03;;;;;;;;;;4983653;28;20074;-57
2023/05/08 08:17:46;;;;;;;253.52;61.83;;;;;;;;;;4984967;28;20117;-58
2023/05/08 08:20:11;;;;;;;282.20;62.73;;;;;;;;;;4985518;28;20022;-59
2023/05/08 08:22:36;;;;;;;275.02;62.55;;;;;;;;;;4986718;28;20257;-58
2023/05/08 08:25:02;;;;;;;289.15;63.85;;;;;;;;;;4986942;28;20018;-58
2023/05/08 08:27:27;;;;;;;341.50;67.30;;;;;;;;;;4985820;28;20557;-58
2023/05/08 08:29:52;;;;;;;269.57;67.83;;;;;;;;;;4986552;28;20022;-59
2023/05/08 08:32:17;;;;;;;280.87;67.77;;;;;;;;;;4984894;28;20265;-56
2023/05/08 08:34:43;;;;;;;270.03;66.57;;;;;;;;;;4985480;28;20136;-58
2023/05/08 08:37:08;;;;;;;268.98;69.35;;;;;;;;;;4985186;28;20037;-59
2023/05/08 08:39:33;;;;;;;330.77;68.97;;;;;;;;;;4986704;28;20041;-58
2023/05/08 08:41:59;;;;;;;301.05;69.07;;;;;;;;;;4970301;28;20276;-59
2023/05/08 08:44:24;;;;;;;269.98;69.72;;;;;;;;;;4984753;28;20136;-58
2023/05/08 08:46:50;;;;;;;308.85;70.13;;;;;;;;;;4984428;28;20154;-56
2023/05/08 08:49:30;;;;;;;262.23;68.05;;;;;;;;;;4986350;28;20032;-58
2023/05/08 08:52:00;;;;;;;279.27;67.97;;;;;;;;;;4986078;28;20061;-58
2023/05/08 08:54:27;;;;;;;265.50;69.30;;;;;;;;;;4983968;28;20133;-59
2023/05/08 08:56:54;;;;;;;299.05;66.95;;;;;;;;;;4984295;28;20037;-59
2023/05/08 08:59:21;;;;;;;268.88;66.57;;;;;;;;;;4987384;28;20434;-59
2023/05/08 09:01:52;;;;;;;273.42;66.50;;;;;;;;;;4984568;28;20415;-56
2023/05/08 09:04:17;;;;;;;291.58;68.05;;;;;;;;;;4984033;28;20423;-57
2023/05/08 09:06:44;;;;;;;259.40;68.90;;;;;;;;;;4983847;28;20523;-57
2023/05/08 09:09:10;;;;;;;331.65;70.15;;;;;;;;;;4984771;28;20264;-57
2023/05/08 09:11:36;;;;;;;296.25;70.30;;;;;;;;;;4986488;28;20104;-59
2023/05/08 09:14:02;;;;;;;299.15;67.07;;;;;;;;;;4984351;28;20061;-57
2023/05/08 09:16:27;;;;;;;328.00;70.57;;;;;;;;;;4985524;28;20034;-58
2023/05/08 09:18:52;;;;;;;283.40;67.82;;;;;;;;;;4984851;28;20026;-58
2023/05/08 09:21:19;;;;;;;284.50;67.13;;;;;;;;;;4984286;28;20034;-59
2023/05/08 09:23:58;;;;;;;379.92;71.05;;;;;;;;;;4985161;28;20030;-59
2023/05/08 09:26:31;;;;;;;285.73;68.10;;;;;;;;;;4984449;28;20040;-58
2023/05/08 09:29:15;;;;;;;244.32;55.78;;;;;;;;;;4985447;28;20033;-58
2023/05/08 09:31:41;;;;;;;303.30;58.33;;;;;;;;;;4984624;28;20036;-56
2023/05/08 09:34:07;;;;;;;266.00;55.97;;;;;;;;;;4985141;28;20036;-57
2023/05/08 09:36:33;;;;;;;246.63;55.60;;;;;;;;;;4984886;28;20050;-56
2023/05/08 09:38:59;;;;;;;306.67;60.83;;;;;;;;;;4984885;28;20099;-56
2023/05/08 09:41:25;;;;;;;245.55;56.28;;;;;;;;;;4986714;28;20084;-58
2023/05/08 09:44:01;;;;;;;294.70;61.63;;;;;;;;;;4987786;28;20019;-57
2023/05/08 09:46:26;;;;;;;286.00;65.13;;;;;;;;;;4988044;28;20037;-58
2023/05/08 09:48:52;;;;;;;249.02;58.08;;;;;;;;;;4988089;28;20030;-58
2023/05/08 09:51:18;;;;;;;252.65;59.00;;;;;;;;;;4986938;28;20607;-56
2023/05/08 09:53:44;;;;;;;342.67;64.30;;;;;;;;;;4986480;28;20030;-57
2023/05/08 09:56:09;;;;;;;311.58;62.92;;;;;;;;;;4987517;28;20045;-56
2023/05/08 09:58:41;;;;;;;227.73;59.45;;;;;;;;;;4987987;28;20030;-57
2023/05/08 10:01:07;;;;;;;276.23;64.43;;;;;;;;;;4987197;28;20077;-56
2023/05/08 10:03:48;;;;;;;298.23;65.05;;;;;;;;;;4989402;28;20106;-56
2023/05/08 10:06:14;;;;;;;272.00;66.32;;;;;;;;;;4985736;28;20054;-56
2023/05/08 10:08:39;;;;;;;304.63;67.75;;;;;;;;;;4986870;28;20042;-56
2023/05/08 10:11:14;;;;;;;273.63;66.13;;;;;;;;;;4985537;28;20045;-56
2023/05/08 10:13:39;;;;;;;379.05;71.53;;;;;;;;;;4987258;28;20026;-56
2023/05/08 10:16:05;;;;;;;319.10;72.23;;;;;;;;;;4988518;28;20548;-59
2023/05/08 10:18:34;;;;;;;285.27;72.00;;;;;;;;;;4987071;28;20280;-57
2023/05/08 10:21:01;;;;;;;269.40;69.47;;;;;;;;;;4987106;28;20618;-58
2023/05/08 10:23:27;;;;;;;235.20;63.88;;;;;;;;;;4986622;28;20094;-60
2023/05/08 10:25:55;;;;;;;283.55;63.65;;;;;;;;;;4985874;28;20035;-59
2023/05/08 10:28:23;;;;;;;256.65;61.67;;;;;;;;;;4986707;28;20041;-59
2023/05/08 10:30:49;;;;;;;275.15;62.10;;;;;;;;;;4987073;28;20929;-59
2023/05/08 10:33:16;;;;;;;268.75;52.53;;;;;;;;;;4987364;28;20037;-58
2023/05/08 10:35:43;;;;;;;194.15;50.90;;;;;;;;;;4985378;28;20042;-59
2023/05/08 10:38:09;;;;;;;279.65;52.38;;;;;;;;;;4987002;28;20118;-59
2023/05/08 10:40:34;;;;;;;233.55;53.10;;;;;;;;;;4986278;28;20041;-59
2023/05/08 10:43:01;;;;;;;249.95;53.67;;;;;;;;;;4987910;28;20023;-57
2023/05/08 10:45:26;;;;;;;231.23;54.63;;;;;;;;;;4985724;28;20033;-56
2023/05/08 10:48:19;;;;;;;191.27;51.28;;;;;;;;;;4986474;28;20034;-56
2023/05/08 10:50:53;;;;;;;216.32;52.00;;;;;;;;;;4985935;28;20669;-60
2023/05/08 10:53:21;;;;;;;265.95;54.15;;;;;;;;;;4986357;28;20066;-57
2023/05/08 10:55:48;;;;;;;229.07;51.90;;;;;;;;;;4986316;28;20053;-58
2023/05/08 10:58:15;;;;;;;272.65;56.22;;;;;;;;;;4986909;28;20041;-58
2023/05/08 11:00:52;;;;;;;246.68;54.67;;;;;;;;;;4987655;28;20262;-58
2023/05/08 11:03:17;;;;;;;241.18;55.63;;;;;;;;;;4987265;28;20069;-58
2023/05/08 11:05:46;;;;;;;262.58;57.53;;;;;;;;;;4986285;28;20121;-59
2023/05/08 11:08:23;;;;;;;258.33;57.20;;;;;;;;;;4986328;28;20083;-58
2023/05/08 11:10:57;;;;;;;265.88;54.25;;;;;;;;;;4986512;28;20030;-59
2023/05/08 11:13:27;;;;;;;214.65;56.25;;;;;;;;;;4987169;28;20025;-57
2023/05/08 11:15:52;;;;;;;258.42;58.33;;;;;;;;;;4984885;28;20038;-60
2023/05/08 11:18:17;;;;;;;226.23;56.03;;;;;;;;;;4985640;28;20393;-57
2023/05/08 11:21:03;;;;;;;231.43;57.42;;;;;;;;;;4985291;28;20042;-60
2023/05/08 11:23:29;;;;;;;228.05;55.90;;;;;;;;;;4987977;28;20081;-59
2023/05/08 11:25:59;;;;;;;231.35;54.03;;;;;;;;;;4986195;28;20571;-60
2023/05/08 11:28:24;;;;;;;204.90;54.60;;;;;;;;;;4986931;28;20289;-60
2023/05/08 11:30:52;;;;;;;206.60;55.20;;;;;;;;;;4987021;28;20038;-60
2023/05/08 11:33:18;;;;;;;268.52;56.15;;;;;;;;;;4986375;28;20271;-58
2023/05/08 11:35:43;;;;;;;222.90;54.83;;;;;;;;;;4984614;28;20044;-59
2023/05/08 11:38:18;;;;;;;213.30;53.87;;;;;;;;;;4989052;28;20121;-58
2023/05/08 11:40:43;;;;;;;249.52;55.03;;;;;;;;;;4969468;28;20262;-57
2023/05/08 11:43:20;;;;;;;243.90;56.40;;;;;;;;;;4986676;28;20511;-57
2023/05/08 11:45:46;;;;;;;237.63;56.72;;;;;;;;;;4984846;28;20030;-59
2023/05/08 11:48:13;;;;;;;311.95;60.40;;;;;;;;;;4987358;28;20090;-58
2023/05/08 11:50:38;;;;;;;296.20;60.78;;;;;;;;;;4985491;28;20644;-56
2023/05/08 11:53:04;;;;;;;262.95;61.65;;;;;;;;;;4986673;28;20053;-57
2023/05/08 11:55:29;;;;;;;280.17;60.03;;;;;;;;;;4985029;28;20030;-56
2023/05/08 11:57:54;;;;;;;237.67;60.73;;;;;;;;;;4986774;28;20040;-57
2023/05/08 12:00:20;;;;;;;240.10;61.30;;;;;;;;;;4984393;28;20329;-56
2023/05/08 12:02:46;;;;;;;277.20;60.42;;;;;;;;;;4987512;28;20149;-56
2023/05/08 12:05:11;;;;;;;253.30;61.03;;;;;;;;;;4983133;28;20026;-58
2023/05/08 12:07:43;;;;;;;295.93;62.40;;;;;;;;;;4984001;28;20128;-60
2023/05/08 12:10:09;;;;;;;296.63;63.10;;;;;;;;;;4985064;28;20352;-57
2023/05/08 12:12:35;;;;;;;293.02;64.10;;;;;;;;;;4987360;28;20671;-59
2023/05/08 12:15:00;;;;;;;278.90;63.90;;;;;;;;;;4984789;28;20077;-58
2023/05/08 12:17:25;;;;;;;287.80;66.50;;;;;;;;;;4985068;28;20103;-57
2023/05/08 12:19:53;;;;;;;263.97;65.80;;;;;;;;;;4986051;28;20314;-57
2023/05/08 12:22:19;;;;;;;305.77;66.88;;;;;;;;;;4984575;28;20042;-59
2023/05/08 12:24:44;;;;;;;295.90;67.88;;;;;;;;;;4984364;28;20026;-59
2023/05/08 12:27:11;;;;;;;285.50;66.57;;;;;;;;;;4967995;28;20076;-59
2023/05/08 12:29:36;;;;;;;304.02;68.35;;;;;;;;;;4984021;28;20118;-58
2023/05/08 12:32:01;;;;;;;312.92;69.13;;;;;;;;;;4984535;28;20451;-59
2023/05/08 12:34:27;;;;;;;311.70;68.43;;;;;;;;;;4983221;28;20033;-58
2023/05/08 12:37:02;;;;;;;243.30;69.25;;;;;;;;;;4986280;28;20281;-58
2023/05/08 12:39:27;;;;;;;278.75;70.30;;;;;;;;;;4983914;28;20022;-59
2023/05/08 12:41:53;;;;;;;274.60;70.80;;;;;;;;;;4985344;28;20042;-56
2023/05/08 12:44:19;;;;;;;269.30;70.73;;;;;;;;;;4985488;28;20289;-59
2023/05/08 12:46:51;;;;;;;314.50;69.65;;;;;;;;;;4984234;28;20106;-57
2023/05/08 12:49:27;;;;;;;282.65;70.90;;;;;;;;;;4985006;28;20519;-56
2023/05/08 12:51:59;;;;;;;297.92;69.28;;;;;;;;;;4985868;28;20031;-57
2023/05/08 12:54:37;;;;;;;248.05;63.42;;;;;;;;;;4984772;28;20065;-57
2023/05/08 12:57:07;;;;;;;333.75;64.40;;;;;;;;;;4984850;28;20071;-58
2023/05/08 12:59:33;;;;;;;277.27;65.25;;;;;;;;;;4984652;28;20045;-57
2023/05/08 13:01:58;;;;;;;259.67;57.67;;;;;;;;;;4984265;28;20038;-57
2023/05/08 13:04:23;;;;;;;207.00;49.80;;;;;;;;;;4982887;28;20121;-57
2023/05/08 13:06:55;;;;;;;215.67;52.70;;;;;;;;;;4983798;28;20258;-58
2023/05/08 13:09:21;;;;;;;261.17;57.50;;;;;;;;;;4984351;28;20357;-57
2023/05/08 13:11:47;;;;;;;232.90;46.60;;;;;;;;;;4986331;28;20092;-59
2023/05/08 13:14:12;;;;;;;244.90;50.73;;;;;;;;;;4982647;28;20945;-58
2023/05/08 13:16:41;;;;;;;251.60;55.87;;;;;;;;;;4986729;28;20305;-59
2023/05/08 13:19:06;;;;;;;245.20;56.75;;;;;;;;;;4987530;28;20297;-57
2023/05/08 13:21:32;;;;;;;304.00;61.00;;;;;;;;;;4988677;28;20034;-57
2023/05/08 13:23:57;;;;;;;264.33;61.73;;;;;;;;;;4988616;28;20160;-56
2023/05/08 13:26:24;;;;;;;208.38;47.33;;;;;;;;;;4987694;28;20034;-57
2023/05/08 13:28:49;;;;;;;231.10;43.50;;;;;;;;;;4989436;28;20487;-59
2023/05/08 13:31:14;;;;;;;224.50;48.92;;;;;;;;;;4987374;28;20035;-59
2023/05/08 13:33:40;;;;;;;325.03;50.20;;;;;;;;;;4987681;28;20027;-58
2023/05/08 13:36:05;;;;;;;235.50;48.23;;;;;;;;;;4986361;28;20034;-59
2023/05/08 13:38:30;;;;;;;238.15;45.60;;;;;;;;;;4988923;28;20292;-57
2023/05/08 13:40:55;;;;;;;225.47;42.30;;;;;;;;;;4987523;28;20080;-58
2023/05/08 13:43:21;;;;;;;194.90;38.97;;;;;;;;;;4988628;28;20801;-60
2023/05/08 13:45:46;;;;;;;198.77;39.93;;;;;;;;;;4987017;28;20250;-57
2023/05/08 13:48:11;;;;;;;258.33;44.73;;;;;;;;;;4989254;28;20250;-57
2023/05/08 13:50:36;;;;;;;233.63;46.60;;;;;;;;;;4986401;28;20258;-57
2023/05/08 13:53:02;;;;;;;241.93;44.80;;;;;;;;;;4989041;28;20098;-56
2023/05/08 13:55:27;;;;;;;244.98;49.00;;;;;;;;;;4986002;28;20022;-57
2023/05/08 13:57:52;;;;;;;194.30;48.93;;;;;;;;;;4988367;28;20022;-57
2023/05/08 14:00:18;;;;;;;279.97;48.57;;;;;;;;;;4985834;28;20277;-58
2023/05/08 14:02:43;;;;;;;224.00;43.08;;;;;;;;;;4987452;28;20030;-57
2023/05/08 14:05:08;;;;;;;212.82;41.72;;;;;;;;;;4986310;28;20027;-57